createdAt,value
2023-02-14T00:00:48.197Z,15.70
2023-02-14T00:03:15.085Z,14.57
2023-02-14T00:05:41.761Z,13.98
2023-02-14T00:08:08.440Z,13.90
2023-02-14T00:10:35.217Z,17.73
2023-02-14T00:13:01.886Z,14.93
2023-02-14T00:15:28.559Z,13.45
2023-02-14T00:17:59.524Z,13.85
2023-02-14T00:20:28.235Z,15.07
2023-02-14T00:22:55.121Z,12.10
2023-02-14T00:25:21.862Z,13.68
2023-02-14T00:27:48.625Z,17.63
2023-02-14T00:30:15.471Z,15.60
2023-02-14T00:32:42.899Z,16.20
2023-02-14T00:35:10.758Z,14.63
2023-02-14T00:37:38.061Z,14.10
2023-02-14T00:40:06.524Z,13.00
2023-02-14T00:42:33.311Z,12.98
2023-02-14T00:45:00.004Z,14.93
2023-02-14T00:47:26.699Z,15.73
2023-02-14T00:49:53.382Z,17.63
2023-02-14T00:52:20.187Z,15.43
2023-02-14T00:54:46.994Z,15.70
2023-02-14T00:57:13.810Z,15.75
2023-02-14T00:59:40.681Z,17.00
2023-02-14T05:02:25.487Z,14.35
2023-02-14T05:04:52.228Z,16.50
2023-02-14T05:07:20.257Z,14.38
2023-02-14T05:09:46.976Z,17.80
2023-02-14T05:12:13.647Z,16.10
2023-02-14T05:14:40.413Z,15.30
2023-02-14T05:17:07.160Z,14.18
2023-02-14T05:19:33.892Z,17.40
2023-02-14T05:22:00.560Z,17.23
2023-02-14T05:24:27.259Z,19.02
2023-02-14T05:26:53.908Z,16.98
2023-02-14T05:29:20.652Z,16.27
2023-02-14T05:31:47.424Z,15.43
2023-02-14T05:34:14.117Z,14.43
2023-02-14T05:36:40.890Z,16.27
2023-02-14T05:39:07.683Z,16.80
2023-02-14T05:41:34.389Z,16.00
2023-02-14T05:44:01.102Z,15.13
2023-02-14T05:46:27.796Z,16.25
2023-02-14T05:48:54.468Z,15.23
2023-02-14T05:51:21.169Z,18.23
2023-02-14T05:53:47.840Z,15.98
2023-02-14T05:56:14.588Z,18.42
2023-02-14T05:58:41.303Z,15.75
2023-02-14T06:01:08.038Z,16.63
2023-02-14T06:03:34.777Z,16.58
2023-02-14T06:06:01.475Z,16.17
2023-02-14T06:08:28.248Z,17.88
2023-02-14T06:10:54.897Z,16.77
2023-02-14T06:13:21.590Z,14.60
2023-02-14T06:15:48.299Z,17.83
2023-02-14T06:18:14.950Z,17.27
2023-02-14T06:20:41.678Z,15.60
2023-02-14T06:23:08.402Z,16.05
2023-02-14T06:25:35.141Z,19.50
2023-02-14T06:28:01.895Z,16.77
2023-02-14T06:30:28.767Z,16.75
2023-02-14T06:32:55.736Z,16.02
2023-02-14T06:35:22.619Z,14.13
2023-02-14T06:37:49.452Z,16.13
2023-02-14T06:40:16.201Z,15.85
2023-02-14T06:42:43.255Z,17.13
2023-02-14T06:45:10.198Z,16.50
2023-02-14T06:47:36.915Z,15.30
2023-02-14T06:50:05.125Z,19.67
2023-02-14T06:52:34.865Z,21.70
2023-02-14T06:55:01.866Z,20.60
2023-02-14T06:57:28.605Z,20.63
2023-02-14T06:59:55.402Z,20.52
2023-02-14T07:02:24.860Z,19.15
2023-02-14T07:04:51.899Z,19.80
2023-02-14T07:07:18.585Z,17.75
2023-02-14T07:09:45.287Z,20.35
2023-02-14T07:12:12.137Z,17.65
2023-02-14T07:14:38.883Z,21.30
2023-02-14T07:17:05.637Z,20.13
2023-02-14T07:19:32.393Z,18.17
2023-02-14T07:21:59.323Z,16.83
2023-02-14T07:24:26.147Z,18.77
2023-02-14T07:26:52.873Z,16.85
2023-02-14T07:29:19.660Z,17.35
2023-02-14T07:31:46.710Z,18.15
2023-02-14T07:34:13.717Z,18.83
2023-02-14T07:36:40.831Z,16.88
2023-02-14T07:39:07.709Z,19.10
2023-02-14T07:41:34.654Z,16.45
2023-02-14T07:44:01.732Z,16.38
2023-02-14T07:46:28.795Z,15.57
2023-02-14T07:48:55.591Z,16.17
2023-02-14T07:51:22.416Z,16.83
2023-02-14T07:53:49.256Z,20.27
2023-02-14T07:56:16.086Z,17.77
2023-02-14T07:58:42.888Z,19.52
2023-02-14T08:01:09.916Z,14.95
2023-02-14T08:03:36.796Z,18.40
2023-02-14T08:06:04.520Z,16.85
2023-02-14T08:08:32.429Z,15.00
2023-02-14T08:11:00.073Z,19.80
2023-02-14T08:13:27.548Z,19.90
2023-02-14T08:16:06.792Z,18.15
2023-02-14T08:18:39.765Z,18.95
2023-02-14T08:21:10.212Z,16.27
2023-02-14T08:23:37.885Z,20.77
2023-02-14T08:26:04.940Z,18.83
2023-02-14T08:28:33.277Z,19.35
2023-02-14T08:31:00.819Z,18.08
2023-02-14T08:33:27.945Z,17.83
2023-02-14T08:35:55.029Z,17.80
2023-02-14T08:38:22.430Z,19.25
2023-02-14T08:40:49.270Z,17.60
2023-02-14T08:43:16.272Z,19.50
2023-02-14T08:45:43.967Z,17.77
2023-02-14T08:48:12.779Z,20.48
2023-02-14T08:50:43.035Z,17.77
2023-02-14T08:53:12.110Z,17.75
2023-02-14T08:55:39.736Z,17.80
2023-02-14T08:58:07.480Z,16.20
2023-02-14T09:00:34.703Z,18.42
2023-02-14T09:03:01.669Z,17.30
2023-02-14T09:05:28.684Z,18.55
2023-02-14T09:07:58.448Z,18.10
2023-02-14T09:10:26.666Z,17.40
2023-02-14T09:12:53.750Z,17.83
2023-02-14T09:15:20.839Z,17.05
2023-02-14T09:17:48.247Z,18.10
2023-02-14T09:20:17.073Z,17.63
2023-02-14T09:22:44.212Z,17.13
2023-02-14T09:25:11.341Z,17.27
2023-02-14T09:27:38.373Z,17.50
2023-02-14T09:30:08.632Z,18.67
2023-02-14T09:32:35.640Z,16.67
2023-02-14T09:35:21.113Z,18.55
2023-02-14T09:38:06.597Z,17.38
2023-02-14T09:40:34.236Z,18.83
2023-02-14T09:43:30.877Z,18.27
2023-02-14T09:46:00.793Z,17.42
2023-02-14T09:48:38.290Z,18.13
2023-02-14T09:51:07.273Z,17.33
2023-02-14T09:53:46.326Z,16.02
2023-02-14T09:56:52.235Z,17.90
2023-02-14T09:59:47.852Z,16.75
2023-02-14T10:02:23.582Z,14.35
2023-02-14T10:05:23.681Z,14.80
2023-02-14T10:08:02.606Z,10.80
2023-02-14T10:10:40.330Z,12.95
2023-02-14T10:13:13.051Z,12.05
2023-02-14T10:15:47.993Z,12.50
2023-02-14T10:18:26.594Z,13.43
2023-02-14T10:20:58.380Z,13.77
2023-02-14T10:23:46.712Z,16.98
2023-02-14T10:26:21.248Z,14.68
2023-02-14T10:28:49.877Z,17.15
2023-02-14T10:31:25.365Z,16.70
2023-02-14T10:33:57.760Z,15.70
2023-02-14T10:37:02.361Z,12.52
2023-02-14T10:39:35.019Z,18.33
2023-02-14T10:42:19.780Z,16.55
2023-02-14T10:45:05.070Z,15.70
2023-02-14T10:47:50.578Z,16.67
2023-02-14T10:50:43.332Z,17.25
2023-02-14T10:53:43.834Z,16.00
2023-02-14T10:56:22.768Z,17.55
2023-02-14T10:58:51.692Z,15.70
2023-02-14T11:01:19.138Z,14.32
2023-02-14T11:04:03.616Z,14.68
2023-02-14T11:06:31.312Z,15.48
2023-02-14T11:08:59.150Z,12.95
2023-02-14T11:11:29.622Z,15.15
2023-02-14T11:13:56.586Z,14.40
2023-02-14T11:16:34.514Z,11.60
2023-02-14T11:19:30.201Z,9.68
2023-02-14T11:21:59.625Z,9.45
2023-02-14T11:24:38.921Z,8.43
2023-02-14T11:27:11.894Z,8.55
2023-02-14T11:29:41.758Z,9.38
2023-02-14T11:32:23.444Z,9.88
2023-02-14T11:35:02.410Z,8.02
2023-02-14T11:37:32.364Z,9.45
2023-02-14T11:40:01.405Z,8.85
2023-02-14T11:42:41.043Z,8.88
2023-02-14T11:45:26.955Z,9.50
2023-02-14T11:48:31.457Z,9.00
2023-02-14T11:51:07.448Z,8.50
2023-02-14T11:53:43.468Z,8.70
2023-02-14T11:56:10.933Z,7.60
2023-02-14T11:58:45.928Z,7.38
2023-02-14T12:01:22.021Z,7.18
2023-02-14T12:03:50.618Z,7.82
2023-02-14T12:06:45.703Z,8.55
2023-02-14T12:09:25.386Z,7.47
2023-02-14T12:12:20.123Z,7.40
2023-02-14T12:14:47.087Z,8.82
2023-02-14T12:17:26.587Z,7.38
2023-02-14T12:20:10.978Z,7.90
2023-02-14T12:22:47.742Z,7.90
2023-02-14T12:25:24.482Z,6.75
2023-02-14T12:27:57.047Z,6.82
2023-02-14T12:32:54.125Z,6.60
2023-02-14T12:35:43.067Z,4.75
2023-02-14T12:38:12.946Z,6.20
2023-02-14T12:40:58.108Z,4.88
2023-02-14T12:43:40.250Z,6.18
2023-02-14T12:49:09.408Z,5.78
2023-02-14T12:51:47.909Z,5.35
2023-02-14T12:54:52.944Z,4.28
2023-02-14T12:57:41.103Z,6.18
2023-02-14T13:00:14.825Z,5.05
2023-02-14T13:03:03.702Z,5.30
2023-02-14T13:06:00.453Z,5.45
2023-02-14T13:08:39.240Z,5.20
2023-02-14T13:11:22.202Z,3.45
2023-02-14T13:17:21.671Z,4.78
2023-02-14T13:20:06.804Z,2.88
2023-02-14T13:22:35.764Z,3.28
2023-02-14T13:25:20.433Z,3.90
2023-02-14T13:27:47.537Z,3.42
2023-02-14T13:30:24.599Z,3.60
2023-02-14T13:32:54.252Z,4.22
2023-02-14T13:35:24.115Z,4.05
2023-02-14T13:37:58.657Z,3.42
2023-02-14T13:40:28.127Z,4.40
2023-02-14T13:43:00.035Z,5.03
2023-02-14T13:45:29.738Z,3.42
2023-02-14T13:48:24.489Z,3.00
2023-02-14T13:51:03.787Z,3.25
2023-02-14T13:53:33.335Z,3.17
2023-02-14T13:56:06.201Z,2.80
2023-02-14T13:58:34.612Z,3.42
2023-02-14T14:01:33.422Z,3.45
2023-02-14T14:04:03.878Z,3.05
2023-02-14T14:06:50.827Z,3.40
2023-02-14T14:09:40.625Z,4.05
2023-02-14T14:12:26.499Z,4.13
2023-02-14T14:15:05.529Z,3.90
2023-02-14T14:17:38.189Z,4.63
2023-02-14T14:22:57.326Z,4.15
2023-02-14T14:25:38.512Z,4.68
2023-02-14T14:28:23.962Z,5.15
2023-02-14T14:30:50.799Z,5.80
2023-02-14T14:33:33.315Z,4.47
2023-02-14T14:36:08.011Z,3.90
2023-02-14T14:38:46.831Z,5.40
2023-02-14T14:41:14.164Z,4.72
2023-02-14T14:43:42.042Z,4.60
2023-02-14T14:46:12.521Z,5.60
2023-02-14T14:48:44.832Z,4.93
2023-02-14T14:51:25.505Z,4.45
2023-02-14T14:53:58.188Z,6.00
2023-02-14T14:56:27.703Z,6.47
2023-02-14T14:58:55.086Z,8.70
2023-02-14T15:01:50.020Z,6.75
2023-02-14T15:04:25.231Z,5.75
2023-02-14T15:06:52.713Z,6.43
2023-02-14T15:09:23.909Z,6.03
2023-02-14T15:12:12.045Z,6.30
2023-02-14T15:14:43.086Z,6.15
2023-02-14T15:17:21.810Z,6.90
2023-02-14T15:19:54.330Z,5.97
2023-02-14T15:22:32.816Z,6.40
2023-02-14T15:24:59.948Z,5.75
2023-02-14T15:27:28.541Z,6.35
2023-02-14T15:30:05.125Z,5.57
2023-02-14T15:32:35.064Z,4.95
2023-02-14T15:35:04.499Z,5.13
2023-02-14T15:37:32.289Z,6.32
2023-02-14T15:39:59.915Z,5.25
2023-02-14T15:42:30.901Z,5.53
2023-02-14T15:45:19.556Z,4.68
2023-02-14T15:47:48.994Z,4.40
2023-02-14T15:50:19.304Z,4.53
2023-02-14T15:52:47.556Z,5.53
2023-02-14T15:55:24.872Z,4.72
2023-02-14T15:58:02.416Z,5.93
2023-02-14T16:00:31.722Z,4.93
2023-02-14T16:03:06.936Z,5.18
2023-02-14T16:05:33.909Z,5.28
2023-02-14T16:08:24.509Z,4.35
2023-02-14T16:11:25.170Z,5.38
2023-02-14T16:13:52.367Z,4.50
2023-02-14T16:16:19.264Z,4.13
2023-02-14T16:18:48.549Z,5.40
2023-02-14T16:21:31.200Z,5.47
2023-02-14T16:26:35.890Z,6.35
2023-02-14T16:29:03.882Z,4.57
2023-02-14T16:31:32.103Z,5.50
2023-02-14T16:33:59.330Z,5.35
2023-02-14T16:36:34.020Z,7.03
2023-02-14T16:39:05.004Z,5.32
2023-02-14T16:41:34.079Z,6.32
2023-02-14T16:44:00.984Z,7.80
2023-02-14T16:46:32.543Z,7.57
2023-02-14T16:48:59.493Z,5.55
2023-02-14T16:51:29.040Z,5.82
2023-02-14T16:53:59.312Z,7.15
2023-02-14T16:56:40.792Z,7.07
2023-02-14T16:59:07.644Z,7.20
2023-02-14T17:01:34.428Z,7.18
2023-02-14T17:04:01.572Z,7.10
2023-02-14T17:06:31.487Z,7.18
2023-02-14T17:09:02.730Z,6.55
2023-02-14T17:11:32.133Z,5.53
2023-02-14T17:13:59.261Z,6.57
2023-02-14T17:16:26.507Z,5.97
2023-02-14T17:18:54.314Z,9.43
2023-02-14T17:21:23.168Z,5.97
2023-02-14T17:23:50.217Z,6.82
2023-02-14T17:26:18.403Z,7.03
2023-02-14T17:28:46.451Z,6.43
2023-02-14T17:31:13.610Z,8.02
2023-02-14T17:33:40.597Z,7.32
2023-02-14T17:36:13.169Z,7.85
2023-02-14T17:41:16.618Z,8.20
2023-02-14T17:43:43.617Z,6.47
2023-02-14T17:46:10.904Z,7.05
2023-02-14T17:48:37.833Z,6.25
2023-02-14T17:51:09.070Z,7.07
2023-02-14T17:53:36.012Z,7.35
2023-02-14T17:56:08.646Z,7.15
2023-02-14T18:01:08.182Z,7.47
2023-02-14T18:03:35.281Z,7.78
2023-02-14T18:06:02.965Z,8.13
2023-02-14T18:08:32.030Z,10.10
2023-02-14T18:10:59.057Z,9.25
2023-02-14T18:13:26.207Z,8.60
2023-02-14T18:15:53.491Z,8.93
2023-02-14T18:18:20.437Z,8.48
2023-02-14T18:20:54.654Z,8.50
2023-02-14T18:23:21.931Z,7.60
2023-02-14T18:25:57.555Z,10.35
2023-02-14T18:28:26.102Z,9.02
2023-02-14T18:30:54.355Z,10.35
2023-02-14T18:33:21.446Z,10.32
2023-02-14T18:35:48.479Z,12.00
2023-02-14T18:38:15.390Z,12.15
2023-02-14T18:40:42.975Z,12.25
2023-02-14T18:43:09.819Z,13.60
2023-02-14T18:45:38.326Z,13.20
2023-02-14T18:48:05.485Z,13.50
2023-02-14T18:50:33.940Z,14.52
2023-02-14T18:53:00.932Z,13.38
2023-02-14T18:55:28.837Z,14.85
2023-02-14T18:57:55.908Z,15.05
2023-02-14T19:00:23.181Z,15.13
2023-02-14T19:02:50.293Z,17.08
2023-02-14T19:05:17.339Z,16.90
2023-02-14T19:07:44.718Z,15.88
2023-02-14T19:10:11.644Z,17.00
2023-02-14T19:12:38.766Z,17.77
2023-02-14T19:15:06.119Z,15.77
2023-02-14T19:17:33.391Z,17.45
2023-02-14T19:20:00.157Z,16.80
2023-02-14T19:22:26.931Z,15.45
2023-02-14T19:24:53.834Z,18.30
2023-02-14T19:27:21.563Z,15.90
2023-02-14T19:29:48.395Z,19.25
2023-02-14T19:32:15.244Z,15.45
2023-02-14T19:34:42.076Z,15.48
2023-02-14T19:37:08.868Z,15.95
2023-02-14T19:39:35.866Z,18.30
2023-02-14T19:42:04.020Z,18.10
2023-02-14T19:44:31.455Z,15.95
2023-02-14T19:47:04.173Z,14.52
2023-02-14T19:49:36.836Z,16.77
2023-02-14T19:52:06.204Z,14.55
2023-02-14T19:54:39.237Z,13.88
2023-02-14T19:57:06.484Z,16.30
2023-02-14T19:59:33.575Z,16.40
2023-02-14T20:02:00.892Z,16.50
2023-02-14T20:04:29.643Z,15.98
2023-02-14T20:06:56.753Z,16.17
2023-02-14T20:09:24.764Z,17.27
2023-02-14T20:11:54.583Z,18.08
2023-02-14T20:14:27.349Z,14.73
2023-02-14T20:16:58.428Z,18.63
2023-02-14T20:19:28.710Z,18.10
2023-02-14T20:21:56.183Z,17.25
2023-02-14T20:24:28.982Z,16.75
2023-02-14T20:26:56.629Z,17.05
2023-02-14T20:29:24.827Z,18.38
2023-02-14T20:31:54.283Z,18.13
2023-02-14T20:34:21.577Z,16.90
2023-02-14T20:36:56.197Z,17.27
2023-02-14T20:39:27.490Z,17.33
2023-02-14T20:41:54.341Z,18.10
2023-02-14T20:44:21.757Z,16.65
2023-02-14T20:46:50.527Z,17.67
2023-02-14T20:49:17.933Z,18.35
2023-02-14T20:51:46.481Z,18.15
2023-02-14T20:54:13.702Z,18.15
2023-02-14T20:56:40.587Z,18.02
2023-02-14T20:59:09.355Z,16.83
2023-02-14T21:01:36.567Z,18.35
2023-02-14T21:04:03.653Z,15.48
2023-02-14T21:06:33.016Z,17.48
2023-02-14T21:09:00.276Z,15.07
2023-02-14T21:11:28.211Z,15.02
2023-02-14T21:13:59.546Z,15.23
2023-02-14T21:16:27.670Z,17.47
2023-02-14T21:18:59.050Z,17.23
2023-02-14T21:21:36.176Z,15.48
2023-02-14T21:24:12.095Z,17.50
2023-02-14T21:26:39.495Z,17.52
2023-02-14T21:29:06.740Z,16.33
2023-02-14T21:31:34.087Z,14.93
2023-02-14T21:34:02.453Z,14.73
2023-02-14T21:36:31.959Z,13.95
2023-02-14T21:38:59.909Z,13.43
2023-02-14T21:41:31.224Z,13.13
2023-02-14T21:43:59.617Z,14.70
2023-02-14T21:46:30.844Z,11.50
2023-02-14T21:49:18.270Z,12.50
2023-02-14T21:51:45.695Z,12.90
2023-02-14T21:54:14.360Z,11.88
2023-02-14T21:56:41.840Z,11.27
2023-02-14T21:59:09.780Z,11.40
2023-02-14T22:01:39.911Z,9.75
2023-02-14T22:04:09.167Z,9.35
2023-02-14T22:06:37.919Z,9.15
2023-02-14T22:09:05.974Z,12.15
2023-02-14T22:11:33.441Z,10.65
2023-02-14T22:14:00.577Z,9.40
2023-02-14T22:16:27.673Z,9.80
2023-02-14T22:18:54.555Z,8.82
2023-02-14T22:21:23.772Z,9.57
2023-02-14T22:23:50.738Z,9.32
2023-02-14T22:26:29.148Z,9.95
2023-02-14T22:29:00.867Z,10.85
2023-02-14T22:31:30.076Z,10.97
2023-02-14T22:33:57.178Z,8.75
2023-02-14T22:36:24.567Z,8.85
2023-02-14T22:38:51.585Z,9.20
2023-02-14T22:41:21.535Z,10.00
2023-02-14T22:43:49.002Z,9.95
2023-02-14T22:46:17.379Z,9.98
2023-02-14T22:48:44.829Z,12.13
2023-02-14T22:51:30.040Z,10.65
2023-02-14T22:53:59.257Z,9.73
2023-02-14T22:56:35.394Z,11.25
2023-02-14T22:59:05.589Z,11.32
2023-02-14T23:01:34.020Z,11.27
2023-02-14T23:04:02.388Z,10.65
2023-02-14T23:06:30.956Z,10.15
2023-02-14T23:08:58.069Z,11.05
2023-02-14T23:11:27.880Z,11.90
2023-02-14T23:14:14.561Z,10.93
2023-02-14T23:17:01.021Z,11.70
2023-02-14T23:19:48.990Z,10.60
2023-02-14T23:22:20.509Z,10.95
2023-02-14T23:24:48.789Z,12.32
2023-02-14T23:27:17.811Z,10.68
2023-02-14T23:29:44.957Z,10.73
2023-02-14T23:32:12.283Z,11.90
2023-02-14T23:34:41.104Z,11.80
2023-02-14T23:37:09.309Z,10.73
2023-02-14T23:39:36.812Z,13.02
2023-02-14T23:42:10.496Z,11.57
2023-02-14T23:44:37.792Z,10.73
2023-02-14T23:47:07.177Z,11.52
2023-02-14T23:49:35.423Z,10.43
2023-02-14T23:52:03.379Z,11.05
2023-02-14T23:54:30.573Z,12.85
2023-02-14T23:57:00.017Z,13.60
2023-02-14T23:59:27.140Z,11.48
